Terminal Aerodrome Forecast
Issued by NWS

Home | Current Version | Previous Version | Text Only | Print | Product List | Glossary On
Versions: 1 2 3 4 5 6 7 8 9 10 11 12
000
FTUS45 KBOI 090533
TAFBKE
TAF
KBKE 090533Z 0906/1006 11008KT 3SM -SHSN OVC030
     FM090800 VRB04KT P6SM VCSH SCT010 BKN025 OVC050
     FM092000 15005KT 2SM -SHSN OVC015=

USA.gov is the U.S. government's official web portal to all federal, state and local government web resources and services.